Acomb, United Kingdom
Current Conditions -  °F | °C
As of 1:50 PM on Tuesday 21 Oct 2014 (Local Time) from EGXU Reporting Station
Few Clouds Few Clouds  
Wind Chill: 52°   Ceiling: Unl
Heat Index: 52°   Visibility: 6mi
Dew Point: 36°   Wind: 33mph
Humidity: 54%   Direction: 300°WNW
Pressure: 29.53"   Gusts: 47mph
Location:  53.96°N, 1.11°W
Report Text: EGXU 211250Z 30029G41KT 9999 FEW038 11/02 Q1000 BLU
Loading
Personal Weather Stations






























Interactive Weather Map
Tropical Storm Tracking
New forecast layout! Learn more

10-Day Weather Forecast

Advertisements
Track Severe Weather on mobile